sensor_id;sensor_type;location;lat;lon;timestamp;P1;durP1;ratioP1;P2;durP2;ratioP2
18931;SDS011;9598;50.954;3.112;2023-01-05T00:00:30;18.42;;;6.18;;
18931;SDS011;9598;50.954;3.112;2023-01-05T00:05:32;20.88;;;6.30;;
18931;SDS011;9598;50.954;3.112;2023-01-05T00:10:35;22.63;;;6.05;;
18931;SDS011;9598;50.954;3.112;2023-01-05T00:15:58;19.30;;;5.95;;
18931;SDS011;9598;50.954;3.112;2023-01-05T00:21:18;27.05;;;6.80;;
18931;SDS011;9598;50.954;3.112;2023-01-05T00:26:37;21.23;;;6.50;;
18931;SDS011;9598;50.954;3.112;2023-01-05T00:31:41;17.90;;;6.15;;
18931;SDS011;9598;50.954;3.112;2023-01-05T00:36:43;24.98;;;5.90;;
18931;SDS011;9598;50.954;3.112;2023-01-05T00:41:45;21.15;;;6.03;;
18931;SDS011;9598;50.954;3.112;2023-01-05T00:46:49;24.88;;;6.35;;
18931;SDS011;9598;50.954;3.112;2023-01-05T00:51:51;21.70;;;6.60;;
18931;SDS011;9598;50.954;3.112;2023-01-05T00:56:53;23.15;;;6.40;;
18931;SDS011;9598;50.954;3.112;2023-01-05T01:01:57;23.38;;;6.15;;
18931;SDS011;9598;50.954;3.112;2023-01-05T01:06:59;22.50;;;6.35;;
18931;SDS011;9598;50.954;3.112;2023-01-05T01:12:02;21.23;;;6.53;;
18931;SDS011;9598;50.954;3.112;2023-01-05T01:17:06;30.70;;;7.82;;
18931;SDS011;9598;50.954;3.112;2023-01-05T01:22:09;19.67;;;6.78;;
18931;SDS011;9598;50.954;3.112;2023-01-05T01:27:12;27.80;;;6.60;;
18931;SDS011;9598;50.954;3.112;2023-01-05T01:32:16;21.13;;;6.13;;
18931;SDS011;9598;50.954;3.112;2023-01-05T01:37:18;24.52;;;6.38;;
18931;SDS011;9598;50.954;3.112;2023-01-05T01:42:23;25.40;;;6.43;;
18931;SDS011;9598;50.954;3.112;2023-01-05T01:47:29;29.58;;;6.28;;
18931;SDS011;9598;50.954;3.112;2023-01-05T01:52:34;26.30;;;6.50;;
18931;SDS011;9598;50.954;3.112;2023-01-05T01:57:38;29.52;;;7.32;;
18931;SDS011;9598;50.954;3.112;2023-01-05T02:02:43;29.73;;;6.05;;
18931;SDS011;9598;50.954;3.112;2023-01-05T02:07:48;24.90;;;6.40;;
18931;SDS011;9598;50.954;3.112;2023-01-05T02:12:57;26.50;;;6.72;;
18931;SDS011;9598;50.954;3.112;2023-01-05T02:18:11;26.70;;;6.97;;
18931;SDS011;9598;50.954;3.112;2023-01-05T02:28:57;21.25;;;6.30;;
18931;SDS011;9598;50.954;3.112;2023-01-05T02:34:27;22.70;;;6.75;;
18931;SDS011;9598;50.954;3.112;2023-01-05T02:39:37;29.08;;;6.93;;
18931;SDS011;9598;50.954;3.112;2023-01-05T02:44:46;24.30;;;6.85;;
18931;SDS011;9598;50.954;3.112;2023-01-05T02:49:50;26.75;;;7.05;;
18931;SDS011;9598;50.954;3.112;2023-01-05T02:54:55;24.70;;;6.60;;
18931;SDS011;9598;50.954;3.112;2023-01-05T03:00:01;17.75;;;5.57;;
18931;SDS011;9598;50.954;3.112;2023-01-05T03:05:06;28.17;;;7.10;;
18931;SDS011;9598;50.954;3.112;2023-01-05T03:10:11;28.48;;;6.65;;
18931;SDS011;9598;50.954;3.112;2023-01-05T03:15:33;26.92;;;7.88;;
18931;SDS011;9598;50.954;3.112;2023-01-05T03:20:41;22.83;;;6.93;;
18931;SDS011;9598;50.954;3.112;2023-01-05T03:25:46;24.15;;;6.97;;
18931;SDS011;9598;50.954;3.112;2023-01-05T03:31:08;22.02;;;6.38;;
18931;SDS011;9598;50.954;3.112;2023-01-05T03:36:50;25.38;;;6.60;;
18931;SDS011;9598;50.954;3.112;2023-01-05T03:41:56;27.98;;;7.18;;
18931;SDS011;9598;50.954;3.112;2023-01-05T03:47:00;29.35;;;7.05;;
18931;SDS011;9598;50.954;3.112;2023-01-05T03:52:04;28.65;;;7.88;;
18931;SDS011;9598;50.954;3.112;2023-01-05T03:57:07;29.95;;;7.00;;
18931;SDS011;9598;50.954;3.112;2023-01-05T04:02:09;27.38;;;7.38;;
18931;SDS011;9598;50.954;3.112;2023-01-05T04:07:12;28.83;;;6.82;;
18931;SDS011;9598;50.954;3.112;2023-01-05T04:12:15;39.40;;;8.63;;
18931;SDS011;9598;50.954;3.112;2023-01-05T04:17:18;33.38;;;8.13;;
18931;SDS011;9598;50.954;3.112;2023-01-05T04:22:23;36.85;;;7.85;;
18931;SDS011;9598;50.954;3.112;2023-01-05T04:27:27;35.40;;;8.15;;
18931;SDS011;9598;50.954;3.112;2023-01-05T04:32:29;36.58;;;8.30;;
18931;SDS011;9598;50.954;3.112;2023-01-05T04:37:33;25.65;;;7.68;;
18931;SDS011;9598;50.954;3.112;2023-01-05T04:42:36;33.88;;;9.00;;
18931;SDS011;9598;50.954;3.112;2023-01-05T04:47:39;29.02;;;7.47;;
18931;SDS011;9598;50.954;3.112;2023-01-05T04:52:44;27.05;;;8.20;;
18931;SDS011;9598;50.954;3.112;2023-01-05T04:57:46;28.08;;;7.00;;
18931;SDS011;9598;50.954;3.112;2023-01-05T05:02:51;34.40;;;8.30;;
18931;SDS011;9598;50.954;3.112;2023-01-05T05:07:55;30.52;;;8.18;;
18931;SDS011;9598;50.954;3.112;2023-01-05T05:13:00;33.25;;;8.18;;
18931;SDS011;9598;50.954;3.112;2023-01-05T05:18:04;25.30;;;7.72;;
18931;SDS011;9598;50.954;3.112;2023-01-05T05:23:08;24.58;;;6.47;;
18931;SDS011;9598;50.954;3.112;2023-01-05T05:28:10;27.85;;;7.22;;
18931;SDS011;9598;50.954;3.112;2023-01-05T05:33:12;27.02;;;6.43;;
18931;SDS011;9598;50.954;3.112;2023-01-05T05:38:16;30.92;;;7.68;;
18931;SDS011;9598;50.954;3.112;2023-01-05T05:43:18;27.52;;;7.38;;
18931;SDS011;9598;50.954;3.112;2023-01-05T05:48:20;27.27;;;7.47;;
18931;SDS011;9598;50.954;3.112;2023-01-05T05:53:24;30.67;;;7.13;;
18931;SDS011;9598;50.954;3.112;2023-01-05T05:58:26;34.30;;;7.90;;
18931;SDS011;9598;50.954;3.112;2023-01-05T06:03:28;26.10;;;7.32;;
18931;SDS011;9598;50.954;3.112;2023-01-05T06:08:31;25.98;;;7.35;;
18931;SDS011;9598;50.954;3.112;2023-01-05T06:13:33;34.65;;;8.07;;
18931;SDS011;9598;50.954;3.112;2023-01-05T06:18:35;22.73;;;7.15;;
18931;SDS011;9598;50.954;3.112;2023-01-05T06:23:39;31.88;;;7.60;;
18931;SDS011;9598;50.954;3.112;2023-01-05T06:28:41;29.42;;;7.00;;
18931;SDS011;9598;50.954;3.112;2023-01-05T06:33:43;23.08;;;6.75;;
18931;SDS011;9598;50.954;3.112;2023-01-05T06:38:47;25.35;;;7.63;;
18931;SDS011;9598;50.954;3.112;2023-01-05T06:43:49;26.63;;;7.20;;
18931;SDS011;9598;50.954;3.112;2023-01-05T06:48:51;27.20;;;7.38;;
18931;SDS011;9598;50.954;3.112;2023-01-05T06:53:54;28.38;;;7.40;;
18931;SDS011;9598;50.954;3.112;2023-01-05T06:58:56;27.45;;;7.95;;
18931;SDS011;9598;50.954;3.112;2023-01-05T07:03:59;32.45;;;7.75;;
18931;SDS011;9598;50.954;3.112;2023-01-05T07:09:02;29.40;;;8.20;;
18931;SDS011;9598;50.954;3.112;2023-01-05T07:14:04;29.55;;;7.32;;
18931;SDS011;9598;50.954;3.112;2023-01-05T07:19:06;25.15;;;7.03;;
18931;SDS011;9598;50.954;3.112;2023-01-05T07:24:10;23.52;;;7.13;;
18931;SDS011;9598;50.954;3.112;2023-01-05T07:29:12;32.35;;;8.35;;
18931;SDS011;9598;50.954;3.112;2023-01-05T07:34:14;21.80;;;7.32;;
18931;SDS011;9598;50.954;3.112;2023-01-05T07:39:18;27.25;;;7.70;;
18931;SDS011;9598;50.954;3.112;2023-01-05T07:44:20;21.10;;;6.47;;
18931;SDS011;9598;50.954;3.112;2023-01-05T07:49:22;30.40;;;7.75;;
18931;SDS011;9598;50.954;3.112;2023-01-05T07:54:26;23.10;;;6.30;;
18931;SDS011;9598;50.954;3.112;2023-01-05T07:59:28;24.13;;;6.43;;
18931;SDS011;9598;50.954;3.112;2023-01-05T08:04:30;23.23;;;7.15;;
18931;SDS011;9598;50.954;3.112;2023-01-05T08:09:33;29.77;;;7.65;;
18931;SDS011;9598;50.954;3.112;2023-01-05T08:14:53;29.10;;;7.00;;
18931;SDS011;9598;50.954;3.112;2023-01-05T08:19:55;25.52;;;6.78;;
18931;SDS011;9598;50.954;3.112;2023-01-05T08:24:58;25.88;;;6.70;;
18931;SDS011;9598;50.954;3.112;2023-01-05T08:30:00;28.02;;;6.47;;
18931;SDS011;9598;50.954;3.112;2023-01-05T08:35:03;27.08;;;6.30;;
18931;SDS011;9598;50.954;3.112;2023-01-05T08:40:08;21.50;;;6.55;;
18931;SDS011;9598;50.954;3.112;2023-01-05T08:45:11;21.55;;;6.60;;
18931;SDS011;9598;50.954;3.112;2023-01-05T08:50:13;21.42;;;6.30;;
18931;SDS011;9598;50.954;3.112;2023-01-05T08:55:16;23.05;;;6.70;;
18931;SDS011;9598;50.954;3.112;2023-01-05T09:00:19;24.70;;;6.85;;
18931;SDS011;9598;50.954;3.112;2023-01-05T09:05:22;24.75;;;7.22;;
18931;SDS011;9598;50.954;3.112;2023-01-05T09:10:26;22.63;;;6.32;;
18931;SDS011;9598;50.954;3.112;2023-01-05T09:15:28;27.70;;;6.93;;
18931;SDS011;9598;50.954;3.112;2023-01-05T09:20:30;24.85;;;6.55;;
18931;SDS011;9598;50.954;3.112;2023-01-05T09:25:33;29.45;;;7.40;;
18931;SDS011;9598;50.954;3.112;2023-01-05T09:30:35;27.08;;;6.80;;
18931;SDS011;9598;50.954;3.112;2023-01-05T09:35:37;27.25;;;7.45;;
18931;SDS011;9598;50.954;3.112;2023-01-05T09:40:41;22.73;;;6.55;;
18931;SDS011;9598;50.954;3.112;2023-01-05T09:45:44;24.60;;;6.68;;
18931;SDS011;9598;50.954;3.112;2023-01-05T09:50:47;34.75;;;8.40;;
18931;SDS011;9598;50.954;3.112;2023-01-05T09:55:52;23.50;;;7.25;;
18931;SDS011;9598;50.954;3.112;2023-01-05T10:00:59;25.75;;;6.38;;
18931;SDS011;9598;50.954;3.112;2023-01-05T10:06:10;24.90;;;6.38;;
18931;SDS011;9598;50.954;3.112;2023-01-05T10:11:16;26.63;;;6.80;;
18931;SDS011;9598;50.954;3.112;2023-01-05T10:16:38;29.83;;;7.10;;
18931;SDS011;9598;50.954;3.112;2023-01-05T10:21:46;24.10;;;7.22;;
18931;SDS011;9598;50.954;3.112;2023-01-05T10:26:57;20.58;;;7.15;;
18931;SDS011;9598;50.954;3.112;2023-01-05T10:32:07;26.75;;;6.38;;
18931;SDS011;9598;50.954;3.112;2023-01-05T10:37:23;28.33;;;7.72;;
18931;SDS011;9598;50.954;3.112;2023-01-05T10:42:47;26.73;;;7.18;;
18931;SDS011;9598;50.954;3.112;2023-01-05T10:48:02;25.80;;;6.82;;
18931;SDS011;9598;50.954;3.112;2023-01-05T10:53:12;28.65;;;7.68;;
18931;SDS011;9598;50.954;3.112;2023-01-05T10:58:21;24.88;;;6.90;;
18931;SDS011;9598;50.954;3.112;2023-01-05T11:03:28;23.55;;;5.88;;
18931;SDS011;9598;50.954;3.112;2023-01-05T11:08:36;21.33;;;7.25;;
18931;SDS011;9598;50.954;3.112;2023-01-05T11:13:40;27.98;;;7.10;;
18931;SDS011;9598;50.954;3.112;2023-01-05T11:18:48;29.88;;;7.78;;
18931;SDS011;9598;50.954;3.112;2023-01-05T11:23:53;28.20;;;7.20;;
18931;SDS011;9598;50.954;3.112;2023-01-05T11:28:59;27.55;;;7.95;;
18931;SDS011;9598;50.954;3.112;2023-01-05T11:34:15;25.48;;;6.90;;
18931;SDS011;9598;50.954;3.112;2023-01-05T11:39:27;25.98;;;7.22;;
18931;SDS011;9598;50.954;3.112;2023-01-05T11:44:33;26.60;;;7.22;;
18931;SDS011;9598;50.954;3.112;2023-01-05T11:49:37;27.52;;;8.13;;
18931;SDS011;9598;50.954;3.112;2023-01-05T11:54:39;25.58;;;7.40;;
18931;SDS011;9598;50.954;3.112;2023-01-05T11:59:43;25.52;;;7.00;;
18931;SDS011;9598;50.954;3.112;2023-01-05T12:04:52;29.85;;;8.02;;
18931;SDS011;9598;50.954;3.112;2023-01-05T12:10:07;26.13;;;6.95;;
18931;SDS011;9598;50.954;3.112;2023-01-05T12:15:41;22.80;;;6.70;;
18931;SDS011;9598;50.954;3.112;2023-01-05T12:21:01;27.77;;;8.55;;
18931;SDS011;9598;50.954;3.112;2023-01-05T12:26:11;30.25;;;8.02;;
18931;SDS011;9598;50.954;3.112;2023-01-05T12:31:26;27.92;;;8.07;;
18931;SDS011;9598;50.954;3.112;2023-01-05T12:36:39;25.35;;;8.02;;
18931;SDS011;9598;50.954;3.112;2023-01-05T12:41:58;22.13;;;6.72;;
18931;SDS011;9598;50.954;3.112;2023-01-05T12:47:17;18.42;;;6.68;;
18931;SDS011;9598;50.954;3.112;2023-01-05T12:52:33;11.25;;;5.35;;
18931;SDS011;9598;50.954;3.112;2023-01-05T12:57:40;6.63;;;4.07;;
18931;SDS011;9598;50.954;3.112;2023-01-05T13:02:47;4.15;;;3.03;;
18931;SDS011;9598;50.954;3.112;2023-01-05T13:07:55;3.05;;;2.80;;
18931;SDS011;9598;50.954;3.112;2023-01-05T13:13:02;3.30;;;2.78;;
18931;SDS011;9598;50.954;3.112;2023-01-05T13:18:08;3.33;;;3.08;;
18931;SDS011;9598;50.954;3.112;2023-01-05T13:23:16;3.85;;;3.25;;
18931;SDS011;9598;50.954;3.112;2023-01-05T13:28:21;3.70;;;3.40;;
18931;SDS011;9598;50.954;3.112;2023-01-05T13:33:33;3.58;;;3.28;;
18931;SDS011;9598;50.954;3.112;2023-01-05T13:38:56;4.30;;;3.92;;
18931;SDS011;9598;50.954;3.112;2023-01-05T13:44:21;4.05;;;3.75;;
18931;SDS011;9598;50.954;3.112;2023-01-05T13:55:18;3.85;;;3.55;;
18931;SDS011;9598;50.954;3.112;2023-01-05T14:00:24;4.07;;;3.75;;
18931;SDS011;9598;50.954;3.112;2023-01-05T14:05:31;3.92;;;3.50;;
18931;SDS011;9598;50.954;3.112;2023-01-05T14:11:11;4.15;;;3.42;;
18931;SDS011;9598;50.954;3.112;2023-01-05T14:22:22;5.05;;;3.45;;
18931;SDS011;9598;50.954;3.112;2023-01-05T14:27:33;3.50;;;3.28;;
18931;SDS011;9598;50.954;3.112;2023-01-05T14:33:10;4.10;;;3.70;;
18931;SDS011;9598;50.954;3.112;2023-01-05T14:38:16;3.97;;;3.00;;
18931;SDS011;9598;50.954;3.112;2023-01-05T14:43:26;4.25;;;2.67;;
18931;SDS011;9598;50.954;3.112;2023-01-05T14:48:31;3.40;;;3.05;;
18931;SDS011;9598;50.954;3.112;2023-01-05T14:53:40;3.50;;;3.20;;
18931;SDS011;9598;50.954;3.112;2023-01-05T14:58:55;4.53;;;3.17;;
18931;SDS011;9598;50.954;3.112;2023-01-05T15:04:16;3.00;;;2.70;;
18931;SDS011;9598;50.954;3.112;2023-01-05T15:09:26;2.83;;;2.47;;
18931;SDS011;9598;50.954;3.112;2023-01-05T15:14:45;3.78;;;2.70;;
18931;SDS011;9598;50.954;3.112;2023-01-05T15:20:11;3.45;;;2.25;;
18931;SDS011;9598;50.954;3.112;2023-01-05T15:25:36;2.30;;;2.10;;
18931;SDS011;9598;50.954;3.112;2023-01-05T15:31:03;3.92;;;2.97;;
18931;SDS011;9598;50.954;3.112;2023-01-05T15:36:20;3.00;;;2.80;;
18931;SDS011;9598;50.954;3.112;2023-01-05T15:41:28;3.72;;;2.17;;
18931;SDS011;9598;50.954;3.112;2023-01-05T15:46:31;2.10;;;1.90;;
18931;SDS011;9598;50.954;3.112;2023-01-05T15:51:34;2.17;;;1.88;;
18931;SDS011;9598;50.954;3.112;2023-01-05T15:56:38;1.80;;;1.70;;
18931;SDS011;9598;50.954;3.112;2023-01-05T16:01:40;3.25;;;2.95;;
18931;SDS011;9598;50.954;3.112;2023-01-05T16:06:43;2.35;;;2.15;;
18931;SDS011;9598;50.954;3.112;2023-01-05T16:11:48;2.90;;;2.70;;
18931;SDS011;9598;50.954;3.112;2023-01-05T16:16:52;2.72;;;2.53;;
18931;SDS011;9598;50.954;3.112;2023-01-05T16:21:59;3.13;;;2.92;;
18931;SDS011;9598;50.954;3.112;2023-01-05T16:27:07;3.50;;;3.20;;
18931;SDS011;9598;50.954;3.112;2023-01-05T16:32:25;5.40;;;3.85;;
18931;SDS011;9598;50.954;3.112;2023-01-05T16:37:29;3.65;;;3.35;;
18931;SDS011;9598;50.954;3.112;2023-01-05T16:42:32;3.88;;;3.55;;
18931;SDS011;9598;50.954;3.112;2023-01-05T16:47:45;4.28;;;3.97;;
18931;SDS011;9598;50.954;3.112;2023-01-05T16:52:50;3.90;;;3.50;;
18931;SDS011;9598;50.954;3.112;2023-01-05T16:57:54;3.72;;;2.83;;
18931;SDS011;9598;50.954;3.112;2023-01-05T17:02:57;3.20;;;2.90;;
18931;SDS011;9598;50.954;3.112;2023-01-05T17:08:02;3.22;;;2.88;;
18931;SDS011;9598;50.954;3.112;2023-01-05T17:13:17;3.30;;;3.00;;
18931;SDS011;9598;50.954;3.112;2023-01-05T17:18:20;3.40;;;3.10;;
18931;SDS011;9598;50.954;3.112;2023-01-05T17:23:26;4.95;;;4.35;;
18931;SDS011;9598;50.954;3.112;2023-01-05T17:28:32;4.60;;;4.07;;
18931;SDS011;9598;50.954;3.112;2023-01-05T17:33:34;4.30;;;3.60;;
18931;SDS011;9598;50.954;3.112;2023-01-05T17:38:36;8.10;;;5.18;;
18931;SDS011;9598;50.954;3.112;2023-01-05T17:43:39;6.53;;;4.32;;
18931;SDS011;9598;50.954;3.112;2023-01-05T17:48:42;7.95;;;3.97;;
18931;SDS011;9598;50.954;3.112;2023-01-05T17:53:44;7.72;;;4.00;;
18931;SDS011;9598;50.954;3.112;2023-01-05T17:58:47;10.07;;;4.50;;
18931;SDS011;9598;50.954;3.112;2023-01-05T18:03:49;9.07;;;3.55;;
18931;SDS011;9598;50.954;3.112;2023-01-05T18:08:52;9.65;;;4.07;;
18931;SDS011;9598;50.954;3.112;2023-01-05T18:13:55;6.53;;;3.58;;
18931;SDS011;9598;50.954;3.112;2023-01-05T18:18:57;9.15;;;3.78;;
18931;SDS011;9598;50.954;3.112;2023-01-05T18:23:59;6.47;;;3.60;;
18931;SDS011;9598;50.954;3.112;2023-01-05T18:29:03;8.32;;;3.17;;
18931;SDS011;9598;50.954;3.112;2023-01-05T18:34:05;6.85;;;3.53;;
18931;SDS011;9598;50.954;3.112;2023-01-05T18:39:08;8.55;;;3.47;;
18931;SDS011;9598;50.954;3.112;2023-01-05T18:44:11;12.40;;;3.22;;
18931;SDS011;9598;50.954;3.112;2023-01-05T18:49:13;8.73;;;3.03;;
18931;SDS011;9598;50.954;3.112;2023-01-05T18:54:16;6.75;;;3.40;;
18931;SDS011;9598;50.954;3.112;2023-01-05T18:59:19;9.68;;;3.75;;
18931;SDS011;9598;50.954;3.112;2023-01-05T19:04:22;12.27;;;4.07;;
18931;SDS011;9598;50.954;3.112;2023-01-05T19:09:24;11.90;;;3.22;;
18931;SDS011;9598;50.954;3.112;2023-01-05T19:14:28;8.90;;;3.40;;
18931;SDS011;9598;50.954;3.112;2023-01-05T19:19:30;10.32;;;3.58;;
18931;SDS011;9598;50.954;3.112;2023-01-05T19:24:32;11.45;;;2.80;;
18931;SDS011;9598;50.954;3.112;2023-01-05T19:29:36;9.70;;;2.45;;
18931;SDS011;9598;50.954;3.112;2023-01-05T19:34:38;8.27;;;2.70;;
18931;SDS011;9598;50.954;3.112;2023-01-05T19:39:41;11.20;;;3.30;;
18931;SDS011;9598;50.954;3.112;2023-01-05T19:44:44;9.68;;;3.75;;
18931;SDS011;9598;50.954;3.112;2023-01-05T19:49:46;11.38;;;3.67;;
18931;SDS011;9598;50.954;3.112;2023-01-05T19:54:48;7.35;;;3.78;;
18931;SDS011;9598;50.954;3.112;2023-01-05T19:59:52;10.48;;;3.65;;
18931;SDS011;9598;50.954;3.112;2023-01-05T20:04:54;8.75;;;4.13;;
18931;SDS011;9598;50.954;3.112;2023-01-05T20:09:56;5.15;;;2.90;;
18931;SDS011;9598;50.954;3.112;2023-01-05T20:14:59;7.10;;;2.95;;
18931;SDS011;9598;50.954;3.112;2023-01-05T20:20:01;9.57;;;3.97;;
18931;SDS011;9598;50.954;3.112;2023-01-05T20:25:04;7.28;;;3.38;;
18931;SDS011;9598;50.954;3.112;2023-01-05T20:30:10;10.82;;;4.20;;
18931;SDS011;9598;50.954;3.112;2023-01-05T20:35:12;10.88;;;3.45;;
18931;SDS011;9598;50.954;3.112;2023-01-05T20:40:15;5.93;;;3.00;;
18931;SDS011;9598;50.954;3.112;2023-01-05T20:45:18;6.65;;;3.35;;
18931;SDS011;9598;50.954;3.112;2023-01-05T20:50:20;6.55;;;3.40;;
18931;SDS011;9598;50.954;3.112;2023-01-05T20:55:23;7.80;;;3.72;;
18931;SDS011;9598;50.954;3.112;2023-01-05T21:00:26;4.68;;;2.78;;
18931;SDS011;9598;50.954;3.112;2023-01-05T21:05:28;5.80;;;3.15;;
18931;SDS011;9598;50.954;3.112;2023-01-05T21:10:30;3.20;;;2.40;;
18931;SDS011;9598;50.954;3.112;2023-01-05T21:15:34;4.07;;;2.85;;
18931;SDS011;9598;50.954;3.112;2023-01-05T21:20:39;6.65;;;3.92;;
18931;SDS011;9598;50.954;3.112;2023-01-05T21:25:42;3.67;;;3.00;;
18931;SDS011;9598;50.954;3.112;2023-01-05T21:30:45;6.35;;;2.45;;
18931;SDS011;9598;50.954;3.112;2023-01-05T21:35:51;4.18;;;2.78;;
18931;SDS011;9598;50.954;3.112;2023-01-05T21:41:01;6.22;;;2.80;;
18931;SDS011;9598;50.954;3.112;2023-01-05T21:46:06;7.25;;;2.70;;
18931;SDS011;9598;50.954;3.112;2023-01-05T21:51:11;5.05;;;2.50;;
18931;SDS011;9598;50.954;3.112;2023-01-05T21:56:30;7.50;;;3.05;;
18931;SDS011;9598;50.954;3.112;2023-01-05T22:01:42;6.85;;;2.85;;
18931;SDS011;9598;50.954;3.112;2023-01-05T22:06:44;5.22;;;2.83;;
18931;SDS011;9598;50.954;3.112;2023-01-05T22:11:46;8.18;;;2.63;;
18931;SDS011;9598;50.954;3.112;2023-01-05T22:16:50;6.90;;;3.40;;
18931;SDS011;9598;50.954;3.112;2023-01-05T22:21:52;4.00;;;2.88;;
18931;SDS011;9598;50.954;3.112;2023-01-05T22:26:54;6.57;;;2.85;;
18931;SDS011;9598;50.954;3.112;2023-01-05T22:31:58;4.70;;;2.67;;
18931;SDS011;9598;50.954;3.112;2023-01-05T22:37:00;5.10;;;3.03;;
18931;SDS011;9598;50.954;3.112;2023-01-05T22:42:02;6.63;;;3.58;;
18931;SDS011;9598;50.954;3.112;2023-01-05T22:47:05;3.67;;;2.63;;
18931;SDS011;9598;50.954;3.112;2023-01-05T22:52:07;4.03;;;2.42;;
18931;SDS011;9598;50.954;3.112;2023-01-05T22:57:09;4.07;;;3.00;;
18931;SDS011;9598;50.954;3.112;2023-01-05T23:02:13;5.57;;;2.58;;
18931;SDS011;9598;50.954;3.112;2023-01-05T23:07:15;3.45;;;2.40;;
18931;SDS011;9598;50.954;3.112;2023-01-05T23:12:19;5.28;;;2.38;;
18931;SDS011;9598;50.954;3.112;2023-01-05T23:17:23;5.68;;;3.83;;
18931;SDS011;9598;50.954;3.112;2023-01-05T23:22:25;7.03;;;4.80;;
18931;SDS011;9598;50.954;3.112;2023-01-05T23:27:27;6.85;;;4.03;;
18931;SDS011;9598;50.954;3.112;2023-01-05T23:32:30;6.57;;;3.75;;
18931;SDS011;9598;50.954;3.112;2023-01-05T23:37:33;6.55;;;3.10;;
18931;SDS011;9598;50.954;3.112;2023-01-05T23:42:35;7.55;;;2.50;;
18931;SDS011;9598;50.954;3.112;2023-01-05T23:47:47;3.85;;;2.03;;
18931;SDS011;9598;50.954;3.112;2023-01-05T23:52:49;5.50;;;2.30;;
18931;SDS011;9598;50.954;3.112;2023-01-05T23:57:51;5.07;;;2.40;;
